Time;durP1;ratioP1;P1;durP2;ratioP2;P2;SDS_P1;SDS_P2;PMS_P1;PMS_P2;Temp;Humidity;BMP_temperature;BMP_pressure;BME280_temperature;BME280_humidity;BME280_pressure;Samples;Min_cycle;Max_cycle;Signal;HPM_P1;HPM_P2
2022/08/11 00:00:14;;;;;;;5.90;4.30;;;;;;;11.64;71.93;100736.53;215775;1276;142564;-65
2022/08/11 00:05:50;;;;;;;5.90;4.20;;;;;;;11.71;71.97;100733.69;214876;1276;141431;-68
2022/08/11 00:11:05;;;;;;;8.30;4.40;;;;;;;11.82;72.17;100737.43;213787;1276;141570;-64
2022/08/11 00:16:14;;;;;;;4.90;4.00;;;;;;;11.87;72.07;100737.71;213611;1276;140454;-65
2022/08/11 00:21:21;;;;;;;9.20;3.80;;;;;;;11.80;71.70;100735.66;213411;1276;141323;-64
2022/08/11 00:26:53;;;;;;;6.10;3.90;;;;;;;11.62;71.64;100735.20;213507;1276;141315;-65
2022/08/11 00:32:00;;;;;;;9.20;4.60;;;;;;;11.48;72.10;100739.66;213602;1276;140596;-64
2022/08/11 00:37:20;;;;;;;6.70;4.10;;;;;;;11.48;72.54;100736.87;213459;1276;152586;-65
2022/08/11 00:42:58;;;;;;;7.80;3.80;;;;;;;11.37;72.30;100734.80;213391;1276;141663;-64
2022/08/11 00:48:10;;;;;;;10.10;4.00;;;;;;;11.35;72.57;100737.11;213451;1276;153762;-63
2022/08/11 00:53:15;;;;;;;4.40;3.40;;;;;;;11.22;72.45;100736.25;213356;1277;141082;-63
2022/08/11 00:58:59;;;;;;;9.60;4.50;;;;;;;11.03;72.74;100737.70;213368;1276;141116;-63
2022/08/11 01:04:23;;;;;;;5.00;4.30;;;;;;;10.99;73.00;100734.91;213561;1275;141009;-65
2022/08/11 01:09:52;;;;;;;5.20;3.20;;;;;;;10.97;73.25;100736.40;213670;1276;143608;-64
2022/08/11 01:15:27;;;;;;;4.00;3.70;;;;;;;11.06;73.34;100737.77;213389;1276;143009;-63
2022/08/11 01:20:53;;;;;;;8.60;5.50;;;;;;;10.98;73.33;100740.25;213539;1277;210256;-63
2022/08/11 01:26:21;;;;;;;7.90;4.50;;;;;;;10.93;73.36;100742.82;213716;1277;141584;-63
2022/08/11 01:32:02;;;;;;;4.90;4.20;;;;;;;10.87;73.41;100740.42;213884;1277;140410;-63
2022/08/11 01:37:30;;;;;;;4.80;3.10;;;;;;;10.76;73.29;100743.16;213609;1277;141617;-63
2022/08/11 01:48:15;;;;;;;3.80;3.50;;;;;;;10.60;73.55;100742.83;214056;1276;2186032;-66
2022/08/11 01:53:43;;;;;;;6.20;3.70;;;;;;;10.59;73.73;100739.55;215767;1277;140601;-65
2022/08/11 01:58:52;;;;;;;3.40;3.10;;;;;;;10.66;74.15;100738.59;215609;1277;141310;-66
2022/08/11 02:04:02;;;;;;;10.10;4.00;;;;;;;10.68;73.65;100739.77;215646;1277;140717;-66
2022/08/11 02:09:19;;;;;;;5.60;4.30;;;;;;;10.66;73.68;100744.25;215926;1276;140392;-65
2022/08/11 02:15:01;;;;;;;7.30;3.90;;;;;;;10.72;73.80;100743.42;213537;1276;153875;-64
2022/08/11 02:26:09;;;;;;;4.20;3.90;;;;;;;10.53;73.80;100741.61;213617;1277;139632;-65
2022/08/11 02:37:36;;;;;;;5.30;4.20;;;;;;;10.58;74.24;100737.55;213710;1277;140677;-64
2022/08/11 02:42:50;;;;;;;9.60;4.30;;;;;;;10.62;74.20;100735.88;213824;1277;143335;-65
2022/08/11 02:54:14;;;;;;;5.00;3.80;;;;;;;10.57;74.50;100740.05;213525;1277;141507;-63
2022/08/11 02:59:49;;;;;;;4.80;4.40;;;;;;;10.52;74.23;100743.27;213483;1277;153060;-65
2022/08/11 03:05:14;;;;;;;5.00;3.70;;;;;;;10.37;74.19;100741.28;213805;1276;140857;-63
2022/08/11 03:10:29;;;;;;;8.50;4.70;;;;;;;10.21;74.12;100740.68;213610;1277;141351;-63
2022/08/11 03:21:18;;;;;;;4.30;3.60;;;;;;;10.19;74.57;100738.23;213643;1276;141260;-63
2022/08/11 03:26:37;;;;;;;4.70;4.30;;;;;;;10.15;74.74;100739.08;213462;1277;140856;-64
2022/08/11 03:31:55;;;;;;;4.30;3.50;;;;;;;10.14;74.46;100742.92;213865;1276;140342;-62
2022/08/11 03:37:53;;;;;;;7.50;4.80;;;;;;;10.07;74.85;100741.80;213570;1277;139671;-63
2022/08/11 03:43:10;;;;;;;3.40;3.10;;;;;;;10.10;75.33;100736.70;214468;1277;139772;-63
2022/08/11 03:48:54;;;;;;;4.20;3.80;;;;;;;10.19;74.97;100739.53;215773;1276;141466;-68
2022/08/11 03:54:20;;;;;;;5.10;4.30;;;;;;;10.40;75.19;100740.75;215196;1277;142523;-66
2022/08/11 03:59:45;;;;;;;4.00;3.50;;;;;;;10.73;75.19;100736.65;215860;1277;140587;-66
2022/08/11 04:05:32;;;;;;;10.60;4.30;;;;;;;10.90;75.33;100743.77;215839;1276;141580;-65
2022/08/11 04:10:58;;;;;;;5.50;4.00;;;;;;;10.94;74.55;100740.67;214684;1277;141313;-65
2022/08/11 04:16:39;;;;;;;4.70;4.20;;;;;;;10.98;74.72;100742.05;214438;1277;141374;-64
2022/08/11 04:22:21;;;;;;;5.60;3.90;;;;;;;11.08;74.84;100746.52;213832;1277;141970;-64
2022/08/11 04:27:44;;;;;;;6.90;5.10;;;;;;;11.26;75.03;100748.35;213567;1276;141632;-62
2022/08/11 04:33:01;;;;;;;8.70;3.90;;;;;;;11.58;75.21;100746.23;213607;1277;141185;-63
2022/08/11 04:38:33;;;;;;;5.50;4.60;;;;;;;11.85;75.21;100750.89;213460;1276;142220;-63
2022/08/11 04:44:13;;;;;;;10.80;5.40;;;;;;;12.01;75.16;100751.52;213805;1276;142458;-63
2022/08/11 05:01:54;;;;;;;7.80;6.00;;;;;;;12.52;76.13;100758.04;213654;1276;142945;-65
2022/08/11 05:07:35;;;;;;;7.70;5.70;;;;;;;12.76;75.72;100759.87;213350;1277;141926;-65
2022/08/11 05:12:55;;;;;;;7.20;6.00;;;;;;;12.98;76.13;100764.66;213675;1277;140600;-65
2022/08/11 05:35:08;;;;;;;7.50;5.00;;;;;;;15.06;75.89;100762.48;213746;1276;140461;-63
2022/08/11 05:57:02;;;;;;;6.40;3.90;;;;;;;24.48;64.49;100757.81;216002;1276;141663;-63
2022/08/11 06:02:08;;;;;;;5.30;3.60;;;;;;;23.83;63.74;100769.59;215993;1276;141357;-63
2022/08/11 06:07:16;;;;;;;10.40;4.00;;;;;;;23.44;62.21;100769.96;216052;1276;139679;-63
2022/08/11 06:12:28;;;;;;;6.20;4.50;;;;;;;23.03;61.88;100767.11;215921;1276;141290;-64
2022/08/11 06:17:43;;;;;;;15.10;4.90;;;;;;;22.51;61.88;100765.72;214242;1276;141299;-62
2022/08/11 06:23:02;;;;;;;10.50;5.10;;;;;;;22.11;61.95;100774.50;213908;1276;141394;-64
2022/08/11 06:28:07;;;;;;;10.50;4.80;;;;;;;21.76;61.87;100774.56;213614;1276;232350;-63
2022/08/11 06:33:32;;;;;;;8.80;3.50;;;;;;;21.41;61.56;100773.73;213706;1276;139754;-63
2022/08/11 06:38:41;;;;;;;17.00;4.10;;;;;;;21.07;61.90;100772.39;213546;1277;140601;-63
2022/08/11 06:43:51;;;;;;;5.40;3.60;;;;;;;20.85;62.02;100772.42;213760;1276;140362;-65
2022/08/11 06:49:02;;;;;;;6.90;3.50;;;;;;;20.72;62.10;100777.64;213792;1277;139618;-63
2022/08/11 06:54:13;;;;;;;5.00;2.70;;;;;;;20.76;62.08;100776.33;213654;1277;139610;-63
2022/08/11 07:04:52;;;;;;;4.30;3.20;;;;;;;21.91;60.70;100766.93;213628;1276;141557;-62
2022/08/11 07:32:27;;;;;;;3.60;2.00;;;;;;;28.53;50.45;100752.89;213445;1277;141286;-64
2022/08/11 07:37:34;;;;;;;3.00;2.10;;;;;;;28.71;49.08;100749.13;213590;1276;140538;-64
2022/08/11 07:42:39;;;;;;;;;;;;;;;28.75;47.83;100750.61;214360;1276;142014;-64
2022/08/11 07:53:08;;;;;;;2.40;1.50;;;;;;;28.74;46.08;100747.14;215779;1276;140209;-63
2022/08/11 08:19:59;;;;;;;1.90;1.70;;;;;;;28.86;43.87;100737.44;213995;1277;141797;-61
2022/08/11 08:25:05;;;;;;;3.20;1.80;;;;;;;28.77;43.20;100736.89;213560;1277;140567;-63
2022/08/11 08:35:40;;;;;;;2.10;1.70;;;;;;;28.72;42.83;100740.19;213530;1277;139497;-64
2022/08/11 08:40:59;;;;;;;4.70;1.80;;;;;;;28.74;42.65;100735.36;213183;1277;139818;-65
2022/08/11 08:46:06;;;;;;;;;;;;;;;28.54;41.94;100742.05;213073;1277;221017;-64
2022/08/11 08:56:56;;;;;;;4.00;2.10;;;;;;;28.28;41.57;100740.98;213310;1277;139965;-64
2022/08/11 09:02:03;;;;;;;2.50;1.40;;;;;;;28.23;41.81;100745.84;213185;1276;141701;-63
2022/08/11 09:07:11;;;;;;;3.50;2.00;;;;;;;28.30;40.78;100750.76;213586;1276;141045;-64
2022/08/11 09:12:20;;;;;;;2.40;1.90;;;;;;;28.30;41.37;100743.79;213478;1276;141594;-64
2022/08/11 09:17:46;;;;;;;2.60;2.10;;;;;;;28.40;41.00;100743.36;213137;1276;141296;-63
2022/08/11 09:28:40;;;;;;;3.70;2.00;;;;;;;28.65;40.57;100739.10;213281;1274;141702;-63
2022/08/11 09:33:45;;;;;;;2.30;1.90;;;;;;;28.72;40.37;100731.31;213594;1276;142883;-64
2022/08/11 09:49:39;;;;;;;2.20;1.80;;;;;;;28.26;39.29;100734.45;215178;1276;140366;-65
2022/08/11 09:54:43;;;;;;;4.80;1.70;;;;;;;27.91;39.31;100734.79;215747;1276;140806;-65
2022/08/11 09:59:52;;;;;;;4.90;1.80;;;;;;;27.88;39.51;100724.39;215634;1276;142101;-64
2022/08/11 10:10:46;;;;;;;2.40;1.90;;;;;;;28.32;39.32;100714.59;215484;1276;140072;-64
2022/08/11 10:16:00;;;;;;;2.10;1.70;;;;;;;28.59;39.20;100710.11;213489;1276;141284;-64
2022/08/11 10:21:35;;;;;;;4.50;1.60;;;;;;;28.63;38.81;100704.61;213545;1276;140772;-64
2022/08/11 10:26:54;;;;;;;3.90;1.80;;;;;;;28.83;38.44;100702.36;213504;1276;141779;-64
2022/08/11 10:37:36;;;;;;;3.40;1.90;;;;;;;28.42;38.71;100690.46;213652;1276;140397;-64
2022/08/11 10:43:12;;;;;;;2.00;1.60;;;;;;;28.36;38.69;100685.91;213330;1276;140198;-64
2022/08/11 10:48:38;;;;;;;1.10;1.00;;;;;;;28.55;38.35;100683.35;213310;1276;140370;-64
2022/08/11 10:59:17;;;;;;;2.70;1.20;;;;;;;28.83;37.74;100669.48;213373;1276;140098;-64
2022/08/11 11:04:49;;;;;;;3.90;1.20;;;;;;;29.00;37.43;100666.16;213103;1276;140265;-64
2022/08/11 11:10:03;;;;;;;1.80;1.20;;;;;;;29.01;36.61;100659.90;212988;1276;141593;-64
2022/08/11 11:21:05;;;;;;;4.20;1.60;;;;;;;28.94;36.48;100654.11;213402;1276;140225;-64
2022/08/11 11:26:28;;;;;;;1.80;1.40;;;;;;;28.78;37.15;100642.85;213133;1276;140032;-63
2022/08/11 11:31:49;;;;;;;2.30;1.70;;;;;;;28.88;37.21;100631.48;213553;1276;139772;-64
2022/08/11 11:36:59;;;;;;;1.60;1.30;;;;;;;28.13;37.22;100636.73;215859;1276;140052;-64
2022/08/11 11:42:08;;;;;;;2.00;1.10;;;;;;;27.95;37.86;100622.80;215930;1276;140280;-64
2022/08/11 11:47:18;;;;;;;5.80;1.80;;;;;;;28.20;37.60;100607.77;215961;1276;139907;-64
2022/08/11 11:52:24;;;;;;;3.40;1.10;;;;;;;28.40;37.31;100603.33;215871;1276;139473;-64
2022/08/11 12:03:07;;;;;;;0.90;0.90;;;;;;;28.66;36.10;100587.55;216043;1276;139498;-64
2022/08/11 12:08:16;;;;;;;0.80;0.80;;;;;;;28.85;36.75;100581.89;213640;1276;204997;-64
2022/08/11 12:13:40;;;;;;;1.10;1.10;;;;;;;28.50;36.00;100578.34;215286;1276;140876;-64
2022/08/11 12:18:48;;;;;;;1.30;1.30;;;;;;;27.72;36.14;100571.60;213893;1276;141428;-64
2022/08/11 12:29:26;;;;;;;3.20;1.20;;;;;;;27.69;36.74;100555.23;214182;1277;140256;-64
2022/08/11 12:34:31;;;;;;;1.70;1.60;;;;;;;27.80;36.85;100552.16;213886;1276;163473;-64
2022/08/11 12:45:26;;;;;;;1.50;1.00;;;;;;;27.27;37.12;100559.71;213439;1276;141167;-64
2022/08/11 13:06:50;;;;;;;1.70;1.50;;;;;;;26.61;38.38;100526.99;213503;1276;152217;-64
2022/08/11 13:12:58;;;;;;;2.00;1.30;;;;;;;26.12;37.98;100526.04;213556;1276;141957;-64
2022/08/11 13:17:33;;;;;;;3.00;1.00;;;;;;;25.72;38.54;100522.01;213350;1276;165966;-64
2022/08/11 13:22:53;;;;;;;1.00;1.00;;;;;;;26.13;39.10;100514.15;213581;1276;140033;-63
2022/08/11 13:28:00;;;;;;;2.80;1.30;;;;;;;26.43;38.51;100514.01;213624;1276;140574;-65
2022/08/11 13:33:06;;;;;;;2.90;1.10;;;;;;;26.28;37.95;100512.31;215788;1276;140207;-64
2022/08/11 13:38:13;;;;;;;;;;;;;;;26.31;37.97;100511.96;215239;1277;140732;-65
2022/08/11 13:43:36;;;;;;;2.60;1.00;;;;;;;26.48;37.85;100507.45;216653;1276;127588;-64
2022/08/11 13:48:41;;;;;;;1.20;0.90;;;;;;;26.79;37.94;100507.77;214506;1274;1753512;-63
2022/08/11 13:53:50;;;;;;;3.00;0.70;;;;;;;27.06;37.54;100505.71;216024;1275;140399;-63
2022/08/11 13:59:02;;;;;;;1.70;1.00;;;;;;;27.19;37.69;100502.58;215793;1276;142116;-65
2022/08/11 14:04:16;;;;;;;1.30;1.20;;;;;;;27.29;37.69;100498.77;215868;1274;140336;-65
2022/08/11 14:09:41;;;;;;;1.20;1.00;;;;;;;26.95;37.69;100498.06;213376;1276;139600;-63
2022/08/11 14:14:55;;;;;;;0.80;0.80;;;;;;;26.51;37.72;100503.28;213209;1276;140124;-63
2022/08/11 14:20:06;;;;;;;2.50;1.20;;;;;;;26.20;38.51;100505.20;213350;1278;150219;-63
2022/08/11 14:25:33;;;;;;;3.10;1.00;;;;;;;26.00;39.12;100513.23;213376;1276;139583;-63
2022/08/11 14:30:58;;;;;;;3.30;1.50;;;;;;;25.24;40.17;100540.36;213222;1276;139308;-64
2022/08/11 14:36:05;;;;;;;14.30;2.00;;;;;;;24.17;41.80;100600.70;213346;1276;140527;-64
2022/08/11 14:52:00;;;;;;;1.80;1.30;;;;;;;21.18;50.19;100587.69;213629;1276;141968;-65
2022/08/11 14:57:04;;;;;;;;;;;;;;;20.81;51.96;100599.02;213385;1276;141017;-64
2022/08/11 15:07:33;;;;;;;1.80;1.70;;;;;;;20.11;55.74;100593.91;213333;1276;210977;-65
2022/08/11 15:12:41;;;;;;;1.50;1.40;;;;;;;20.11;57.08;100581.08;213348;1276;141787;-67
2022/08/11 15:17:49;;;;;;;5.60;1.80;;;;;;;20.19;58.05;100551.09;213459;1276;151306;-67
2022/08/11 15:39:28;;;;;;;1.80;1.70;;;;;;;20.48;60.69;100536.71;215800;1276;140657;-66
2022/08/11 15:50:09;;;;;;;2.30;2.10;;;;;;;20.69;62.03;100578.58;215846;1276;141148;-65
2022/08/11 15:55:18;;;;;;;4.80;1.60;;;;;;;20.85;62.07;100590.80;216038;1276;140546;-64
2022/08/11 16:05:49;;;;;;;14.70;1.20;;;;;;;21.24;60.10;100579.58;213948;1276;139828;-64
2022/08/11 16:10:57;;;;;;;0.70;0.70;;;;;;;21.33;59.15;100573.22;213435;1276;140042;-63
2022/08/11 16:16:15;;;;;;;0.60;0.60;;;;;;;21.41;58.91;100567.42;213518;1276;140746;-63
2022/08/11 16:21:26;;;;;;;0.70;0.50;;;;;;;21.29;59.17;100553.83;213405;1276;140010;-63
2022/08/11 16:26:41;;;;;;;3.20;0.50;;;;;;;21.13;59.67;100534.41;213009;1276;143923;-63
2022/08/11 16:32:16;;;;;;;0.90;0.90;;;;;;;20.98;60.34;100523.77;213262;1276;139867;-63
2022/08/11 16:48:15;;;;;;;;;;;;;;;20.17;62.34;100503.36;213390;1276;140202;-64
2022/08/11 16:53:43;;;;;;;0.70;0.70;;;;;;;20.11;63.07;100496.69;213899;1276;126989;-64
2022/08/11 16:59:19;;;;;;;3.30;0.70;;;;;;;20.15;63.42;100496.45;213473;1276;140062;-63
2022/08/11 17:16:06;;;;;;;1.90;1.20;;;;;;;19.88;64.55;100496.14;213374;1276;140570;-64
2022/08/11 17:21:28;;;;;;;0.70;0.70;;;;;;;19.80;64.66;100497.33;213571;1276;141908;-66
2022/08/11 17:26:58;;;;;;;6.20;1.60;;;;;;;19.69;64.77;100491.35;213222;1276;140906;-68
2022/08/11 17:38:15;;;;;;;0.80;0.80;;;;;;;19.27;64.75;100486.42;215803;1276;141616;-64
2022/08/11 17:48:43;;;;;;;0.70;0.70;;;;;;;18.75;65.38;100483.14;215851;1274;140711;-65
2022/08/11 18:04:53;;;;;;;1.20;1.10;;;;;;;18.11;66.36;100495.11;214143;1276;232811;-64
